sensor_id;sensor_type;location;lat;lon;timestamp;P1;durP1;ratioP1;P2;durP2;ratioP2
583;SDS011;27024;54.068;12.116;2024-01-15T00:00:29;3.03;;;0.88;;
583;SDS011;27024;54.068;12.116;2024-01-15T00:02:56;5.15;;;0.82;;
583;SDS011;27024;54.068;12.116;2024-01-15T00:05:24;5.90;;;0.75;;
583;SDS011;27024;54.068;12.116;2024-01-15T00:07:51;2.70;;;0.40;;
583;SDS011;27024;54.068;12.116;2024-01-15T00:10:18;3.25;;;0.60;;
583;SDS011;27024;54.068;12.116;2024-01-15T00:12:45;5.60;;;0.98;;
583;SDS011;27024;54.068;12.116;2024-01-15T00:15:12;3.53;;;0.20;;
583;SDS011;27024;54.068;12.116;2024-01-15T00:17:39;6.57;;;0.90;;
583;SDS011;27024;54.068;12.116;2024-01-15T00:20:06;0.93;;;0.30;;
583;SDS011;27024;54.068;12.116;2024-01-15T00:22:33;5.78;;;0.82;;
583;SDS011;27024;54.068;12.116;2024-01-15T00:25:02;6.00;;;1.02;;
583;SDS011;27024;54.068;12.116;2024-01-15T00:27:30;3.50;;;0.60;;
583;SDS011;27024;54.068;12.116;2024-01-15T00:29:57;3.65;;;0.90;;
583;SDS011;27024;54.068;12.116;2024-01-15T00:32:24;5.72;;;1.20;;
583;SDS011;27024;54.068;12.116;2024-01-15T00:34:51;5.30;;;1.02;;
583;SDS011;27024;54.068;12.116;2024-01-15T00:37:18;7.38;;;0.80;;
583;SDS011;27024;54.068;12.116;2024-01-15T00:39:45;6.30;;;0.80;;
583;SDS011;27024;54.068;12.116;2024-01-15T00:42:12;5.03;;;0.98;;
583;SDS011;27024;54.068;12.116;2024-01-15T00:44:39;10.82;;;0.95;;
583;SDS011;27024;54.068;12.116;2024-01-15T00:47:07;6.03;;;1.00;;
583;SDS011;27024;54.068;12.116;2024-01-15T00:49:33;6.30;;;0.95;;
583;SDS011;27024;54.068;12.116;2024-01-15T00:52:01;4.00;;;0.68;;
583;SDS011;27024;54.068;12.116;2024-01-15T00:54:28;4.22;;;0.88;;
583;SDS011;27024;54.068;12.116;2024-01-15T00:56:55;8.48;;;0.80;;
583;SDS011;27024;54.068;12.116;2024-01-15T00:59:22;6.13;;;0.73;;
583;SDS011;27024;54.068;12.116;2024-01-15T01:01:49;3.03;;;0.30;;
583;SDS011;27024;54.068;12.116;2024-01-15T01:04:16;10.98;;;0.80;;
583;SDS011;27024;54.068;12.116;2024-01-15T01:06:43;3.53;;;0.77;;
583;SDS011;27024;54.068;12.116;2024-01-15T01:09:10;8.82;;;1.70;;
583;SDS011;27024;54.068;12.116;2024-01-15T01:11:37;5.72;;;0.45;;
583;SDS011;27024;54.068;12.116;2024-01-15T01:14:04;2.95;;;0.40;;
583;SDS011;27024;54.068;12.116;2024-01-15T01:16:32;4.07;;;0.70;;
583;SDS011;27024;54.068;12.116;2024-01-15T01:19:05;10.27;;;0.93;;
583;SDS011;27024;54.068;12.116;2024-01-15T01:21:34;10.13;;;0.95;;
583;SDS011;27024;54.068;12.116;2024-01-15T01:24:01;9.05;;;0.68;;
583;SDS011;27024;54.068;12.116;2024-01-15T01:26:28;4.80;;;0.70;;
583;SDS011;27024;54.068;12.116;2024-01-15T01:28:55;4.50;;;0.60;;
583;SDS011;27024;54.068;12.116;2024-01-15T01:31:22;1.15;;;0.35;;
583;SDS011;27024;54.068;12.116;2024-01-15T01:33:50;6.72;;;0.60;;
583;SDS011;27024;54.068;12.116;2024-01-15T01:36:18;4.88;;;0.70;;
583;SDS011;27024;54.068;12.116;2024-01-15T01:38:45;5.78;;;0.85;;
583;SDS011;27024;54.068;12.116;2024-01-15T01:41:12;11.35;;;0.95;;
583;SDS011;27024;54.068;12.116;2024-01-15T01:43:39;6.28;;;0.57;;
583;SDS011;27024;54.068;12.116;2024-01-15T01:46:06;6.50;;;0.65;;
583;SDS011;27024;54.068;12.116;2024-01-15T01:48:35;5.13;;;1.55;;
583;SDS011;27024;54.068;12.116;2024-01-15T01:51:02;3.88;;;0.50;;
583;SDS011;27024;54.068;12.116;2024-01-15T01:53:31;2.60;;;0.50;;
583;SDS011;27024;54.068;12.116;2024-01-15T01:56:01;3.63;;;0.60;;
583;SDS011;27024;54.068;12.116;2024-01-15T01:58:29;5.65;;;0.52;;
583;SDS011;27024;54.068;12.116;2024-01-15T02:00:59;5.35;;;0.57;;
583;SDS011;27024;54.068;12.116;2024-01-15T02:03:27;8.02;;;0.60;;
583;SDS011;27024;54.068;12.116;2024-01-15T02:05:55;7.60;;;1.10;;
583;SDS011;27024;54.068;12.116;2024-01-15T02:08:23;5.30;;;0.30;;
583;SDS011;27024;54.068;12.116;2024-01-15T02:10:50;9.35;;;0.50;;
583;SDS011;27024;54.068;12.116;2024-01-15T02:13:17;7.57;;;0.60;;
583;SDS011;27024;54.068;12.116;2024-01-15T02:15:45;11.45;;;1.13;;
583;SDS011;27024;54.068;12.116;2024-01-15T02:18:12;5.90;;;0.52;;
583;SDS011;27024;54.068;12.116;2024-01-15T02:20:39;6.88;;;0.88;;
583;SDS011;27024;54.068;12.116;2024-01-15T02:23:10;7.10;;;0.70;;
583;SDS011;27024;54.068;12.116;2024-01-15T02:25:42;6.05;;;0.77;;
583;SDS011;27024;54.068;12.116;2024-01-15T02:28:12;4.68;;;0.60;;
583;SDS011;27024;54.068;12.116;2024-01-15T02:30:41;5.75;;;0.73;;
583;SDS011;27024;54.068;12.116;2024-01-15T02:33:09;3.08;;;0.32;;
583;SDS011;27024;54.068;12.116;2024-01-15T02:35:38;6.18;;;0.80;;
583;SDS011;27024;54.068;12.116;2024-01-15T02:38:05;5.50;;;0.60;;
583;SDS011;27024;54.068;12.116;2024-01-15T02:40:32;6.75;;;1.13;;
583;SDS011;27024;54.068;12.116;2024-01-15T02:43:00;5.10;;;0.70;;
583;SDS011;27024;54.068;12.116;2024-01-15T02:45:27;14.18;;;0.95;;
583;SDS011;27024;54.068;12.116;2024-01-15T02:47:54;3.30;;;0.40;;
583;SDS011;27024;54.068;12.116;2024-01-15T02:50:21;12.88;;;0.82;;
583;SDS011;27024;54.068;12.116;2024-01-15T02:52:48;8.52;;;0.80;;
583;SDS011;27024;54.068;12.116;2024-01-15T02:55:16;5.72;;;0.82;;
583;SDS011;27024;54.068;12.116;2024-01-15T02:57:43;8.32;;;0.60;;
583;SDS011;27024;54.068;12.116;2024-01-15T03:00:10;11.68;;;0.90;;
583;SDS011;27024;54.068;12.116;2024-01-15T03:02:39;9.68;;;0.80;;
583;SDS011;27024;54.068;12.116;2024-01-15T03:05:10;9.35;;;1.13;;
583;SDS011;27024;54.068;12.116;2024-01-15T03:07:38;9.93;;;0.50;;
583;SDS011;27024;54.068;12.116;2024-01-15T03:10:05;5.88;;;1.30;;
583;SDS011;27024;54.068;12.116;2024-01-15T03:12:33;8.73;;;0.80;;
583;SDS011;27024;54.068;12.116;2024-01-15T03:15:00;8.85;;;0.65;;
583;SDS011;27024;54.068;12.116;2024-01-15T03:17:27;4.13;;;0.50;;
583;SDS011;27024;54.068;12.116;2024-01-15T03:19:54;9.70;;;0.98;;
583;SDS011;27024;54.068;12.116;2024-01-15T03:22:22;8.27;;;0.90;;
583;SDS011;27024;54.068;12.116;2024-01-15T03:24:49;9.00;;;1.05;;
583;SDS011;27024;54.068;12.116;2024-01-15T03:27:16;7.70;;;1.15;;
583;SDS011;27024;54.068;12.116;2024-01-15T03:29:45;11.75;;;1.02;;
583;SDS011;27024;54.068;12.116;2024-01-15T03:32:12;10.90;;;1.10;;
583;SDS011;27024;54.068;12.116;2024-01-15T03:34:39;13.02;;;0.88;;
583;SDS011;27024;54.068;12.116;2024-01-15T03:37:06;11.95;;;1.35;;
583;SDS011;27024;54.068;12.116;2024-01-15T03:39:33;6.97;;;0.52;;
583;SDS011;27024;54.068;12.116;2024-01-15T03:42:01;8.52;;;0.65;;
583;SDS011;27024;54.068;12.116;2024-01-15T03:44:28;10.38;;;1.05;;
583;SDS011;27024;54.068;12.116;2024-01-15T03:46:55;12.00;;;1.70;;
583;SDS011;27024;54.068;12.116;2024-01-15T03:49:22;9.45;;;0.80;;
583;SDS011;27024;54.068;12.116;2024-01-15T03:51:49;14.35;;;1.05;;
583;SDS011;27024;54.068;12.116;2024-01-15T03:54:16;8.43;;;1.42;;
583;SDS011;27024;54.068;12.116;2024-01-15T03:56:46;13.93;;;0.85;;
583;SDS011;27024;54.068;12.116;2024-01-15T03:59:13;12.18;;;1.23;;
583;SDS011;27024;54.068;12.116;2024-01-15T04:01:40;11.68;;;2.22;;
583;SDS011;27024;54.068;12.116;2024-01-15T04:04:07;11.88;;;1.02;;
583;SDS011;27024;54.068;12.116;2024-01-15T04:06:34;7.65;;;1.10;;
583;SDS011;27024;54.068;12.116;2024-01-15T04:09:02;12.82;;;1.73;;
583;SDS011;27024;54.068;12.116;2024-01-15T04:11:29;11.52;;;0.93;;
583;SDS011;27024;54.068;12.116;2024-01-15T04:13:56;17.80;;;2.05;;
583;SDS011;27024;54.068;12.116;2024-01-15T04:16:23;10.57;;;0.82;;
583;SDS011;27024;54.068;12.116;2024-01-15T04:18:50;9.68;;;1.00;;
583;SDS011;27024;54.068;12.116;2024-01-15T04:21:17;9.38;;;0.80;;
583;SDS011;27024;54.068;12.116;2024-01-15T04:23:45;10.02;;;2.17;;
583;SDS011;27024;54.068;12.116;2024-01-15T04:26:12;10.95;;;0.70;;
583;SDS011;27024;54.068;12.116;2024-01-15T04:28:39;10.75;;;0.95;;
583;SDS011;27024;54.068;12.116;2024-01-15T04:31:07;10.27;;;0.95;;
583;SDS011;27024;54.068;12.116;2024-01-15T04:33:34;8.32;;;0.70;;
583;SDS011;27024;54.068;12.116;2024-01-15T04:36:04;10.00;;;1.10;;
583;SDS011;27024;54.068;12.116;2024-01-15T04:38:32;5.95;;;0.45;;
583;SDS011;27024;54.068;12.116;2024-01-15T04:40:59;6.68;;;0.45;;
583;SDS011;27024;54.068;12.116;2024-01-15T04:43:26;5.97;;;0.90;;
583;SDS011;27024;54.068;12.116;2024-01-15T04:45:53;4.43;;;0.70;;
583;SDS011;27024;54.068;12.116;2024-01-15T04:48:20;8.55;;;0.68;;
583;SDS011;27024;54.068;12.116;2024-01-15T04:50:49;11.07;;;0.80;;
583;SDS011;27024;54.068;12.116;2024-01-15T04:53:17;5.22;;;0.63;;
583;SDS011;27024;54.068;12.116;2024-01-15T04:55:47;6.13;;;0.90;;
583;SDS011;27024;54.068;12.116;2024-01-15T04:58:14;7.88;;;0.90;;
583;SDS011;27024;54.068;12.116;2024-01-15T05:00:41;4.57;;;0.40;;
583;SDS011;27024;54.068;12.116;2024-01-15T05:03:11;8.90;;;0.68;;
583;SDS011;27024;54.068;12.116;2024-01-15T05:05:38;8.07;;;0.80;;
583;SDS011;27024;54.068;12.116;2024-01-15T05:08:05;10.65;;;0.70;;
583;SDS011;27024;54.068;12.116;2024-01-15T05:10:32;4.65;;;0.38;;
583;SDS011;27024;54.068;12.116;2024-01-15T05:12:59;8.70;;;0.55;;
583;SDS011;27024;54.068;12.116;2024-01-15T05:15:26;5.30;;;0.47;;
583;SDS011;27024;54.068;12.116;2024-01-15T05:17:59;6.18;;;0.32;;
583;SDS011;27024;54.068;12.116;2024-01-15T05:20:26;5.70;;;0.80;;
583;SDS011;27024;54.068;12.116;2024-01-15T05:22:53;6.05;;;0.40;;
583;SDS011;27024;54.068;12.116;2024-01-15T05:25:20;6.60;;;0.50;;
583;SDS011;27024;54.068;12.116;2024-01-15T05:27:47;10.77;;;0.95;;
583;SDS011;27024;54.068;12.116;2024-01-15T05:30:14;6.55;;;0.52;;
583;SDS011;27024;54.068;12.116;2024-01-15T05:32:41;7.07;;;0.75;;
583;SDS011;27024;54.068;12.116;2024-01-15T05:35:09;10.23;;;0.80;;
583;SDS011;27024;54.068;12.116;2024-01-15T05:37:36;4.07;;;0.30;;
583;SDS011;27024;54.068;12.116;2024-01-15T05:40:03;6.10;;;0.70;;
583;SDS011;27024;54.068;12.116;2024-01-15T05:42:31;6.35;;;0.50;;
583;SDS011;27024;54.068;12.116;2024-01-15T05:44:58;6.13;;;0.57;;
583;SDS011;27024;54.068;12.116;2024-01-15T05:47:26;10.90;;;0.73;;
583;SDS011;27024;54.068;12.116;2024-01-15T05:49:53;8.07;;;0.40;;
583;SDS011;27024;54.068;12.116;2024-01-15T05:52:21;7.53;;;0.50;;
583;SDS011;27024;54.068;12.116;2024-01-15T05:54:49;8.93;;;0.75;;
583;SDS011;27024;54.068;12.116;2024-01-15T05:57:16;6.70;;;0.68;;
583;SDS011;27024;54.068;12.116;2024-01-15T05:59:44;7.57;;;0.40;;
583;SDS011;27024;54.068;12.116;2024-01-15T06:02:11;4.93;;;0.60;;
583;SDS011;27024;54.068;12.116;2024-01-15T06:04:38;7.63;;;0.55;;
583;SDS011;27024;54.068;12.116;2024-01-15T06:07:05;7.95;;;0.73;;
583;SDS011;27024;54.068;12.116;2024-01-15T06:09:32;5.90;;;0.70;;
583;SDS011;27024;54.068;12.116;2024-01-15T06:11:59;7.57;;;0.77;;
583;SDS011;27024;54.068;12.116;2024-01-15T06:14:26;9.10;;;0.55;;
583;SDS011;27024;54.068;12.116;2024-01-15T06:16:53;7.53;;;0.40;;
583;SDS011;27024;54.068;12.116;2024-01-15T06:19:20;5.57;;;0.30;;
583;SDS011;27024;54.068;12.116;2024-01-15T06:21:47;4.70;;;0.47;;
583;SDS011;27024;54.068;12.116;2024-01-15T06:24:14;4.25;;;0.30;;
583;SDS011;27024;54.068;12.116;2024-01-15T06:26:42;1.55;;;0.22;;
583;SDS011;27024;54.068;12.116;2024-01-15T06:29:09;4.38;;;0.68;;
583;SDS011;27024;54.068;12.116;2024-01-15T06:31:36;3.33;;;0.35;;
583;SDS011;27024;54.068;12.116;2024-01-15T06:34:03;2.33;;;0.32;;
583;SDS011;27024;54.068;12.116;2024-01-15T06:36:30;2.53;;;0.20;;
583;SDS011;27024;54.068;12.116;2024-01-15T06:38:57;4.03;;;0.30;;
583;SDS011;27024;54.068;12.116;2024-01-15T06:41:24;2.60;;;0.35;;
583;SDS011;27024;54.068;12.116;2024-01-15T06:43:52;9.60;;;0.45;;
583;SDS011;27024;54.068;12.116;2024-01-15T06:46:20;3.80;;;0.40;;
583;SDS011;27024;54.068;12.116;2024-01-15T06:48:47;2.95;;;0.50;;
583;SDS011;27024;54.068;12.116;2024-01-15T06:51:15;4.90;;;0.20;;
583;SDS011;27024;54.068;12.116;2024-01-15T06:53:43;2.60;;;0.50;;
583;SDS011;27024;54.068;12.116;2024-01-15T06:56:10;2.17;;;0.10;;
583;SDS011;27024;54.068;12.116;2024-01-15T06:58:37;0.57;;;0.22;;
583;SDS011;27024;54.068;12.116;2024-01-15T07:01:04;2.80;;;0.10;;
583;SDS011;27024;54.068;12.116;2024-01-15T07:03:31;1.80;;;0.20;;
583;SDS011;27024;54.068;12.116;2024-01-15T07:05:59;1.70;;;0.20;;
583;SDS011;27024;54.068;12.116;2024-01-15T07:08:26;4.30;;;0.20;;
583;SDS011;27024;54.068;12.116;2024-01-15T07:10:53;2.03;;;0.20;;
583;SDS011;27024;54.068;12.116;2024-01-15T07:13:20;0.43;;;0.20;;
583;SDS011;27024;54.068;12.116;2024-01-15T07:15:47;1.10;;;0.17;;
583;SDS011;27024;54.068;12.116;2024-01-15T07:18:14;1.65;;;0.10;;
583;SDS011;27024;54.068;12.116;2024-01-15T07:20:41;0.25;;;0.10;;
583;SDS011;27024;54.068;12.116;2024-01-15T07:23:08;3.25;;;0.20;;
583;SDS011;27024;54.068;12.116;2024-01-15T07:25:35;4.68;;;0.50;;
583;SDS011;27024;54.068;12.116;2024-01-15T07:28:04;1.67;;;0.10;;
583;SDS011;27024;54.068;12.116;2024-01-15T07:30:31;2.97;;;0.30;;
583;SDS011;27024;54.068;12.116;2024-01-15T07:32:58;2.58;;;0.40;;
583;SDS011;27024;54.068;12.116;2024-01-15T07:35:25;3.45;;;0.43;;
583;SDS011;27024;54.068;12.116;2024-01-15T07:37:52;4.30;;;0.40;;
583;SDS011;27024;54.068;12.116;2024-01-15T07:40:19;3.53;;;0.30;;
583;SDS011;27024;54.068;12.116;2024-01-15T07:42:46;1.88;;;0.20;;
583;SDS011;27024;54.068;12.116;2024-01-15T07:45:14;3.47;;;0.20;;
583;SDS011;27024;54.068;12.116;2024-01-15T07:47:41;4.22;;;0.30;;
583;SDS011;27024;54.068;12.116;2024-01-15T07:50:08;3.28;;;0.60;;
583;SDS011;27024;54.068;12.116;2024-01-15T07:52:36;1.45;;;0.35;;
583;SDS011;27024;54.068;12.116;2024-01-15T07:55:03;1.98;;;0.32;;
583;SDS011;27024;54.068;12.116;2024-01-15T07:57:31;4.53;;;0.47;;
583;SDS011;27024;54.068;12.116;2024-01-15T07:59:58;0.98;;;0.20;;
583;SDS011;27024;54.068;12.116;2024-01-15T08:02:26;4.03;;;0.50;;
583;SDS011;27024;54.068;12.116;2024-01-15T08:04:53;1.92;;;0.32;;
583;SDS011;27024;54.068;12.116;2024-01-15T08:07:20;3.20;;;0.20;;
583;SDS011;27024;54.068;12.116;2024-01-15T08:09:47;3.58;;;0.30;;
583;SDS011;27024;54.068;12.116;2024-01-15T08:12:15;3.75;;;0.20;;
583;SDS011;27024;54.068;12.116;2024-01-15T08:14:42;3.17;;;0.30;;
583;SDS011;27024;54.068;12.116;2024-01-15T08:17:09;5.40;;;0.30;;
583;SDS011;27024;54.068;12.116;2024-01-15T08:19:36;1.15;;;0.20;;
583;SDS011;27024;54.068;12.116;2024-01-15T08:22:03;4.00;;;0.63;;
583;SDS011;27024;54.068;12.116;2024-01-15T08:24:30;2.47;;;0.20;;
583;SDS011;27024;54.068;12.116;2024-01-15T08:26:58;3.25;;;0.20;;
583;SDS011;27024;54.068;12.116;2024-01-15T08:29:25;0.50;;;0.10;;
583;SDS011;27024;54.068;12.116;2024-01-15T08:31:53;3.75;;;0.52;;
583;SDS011;27024;54.068;12.116;2024-01-15T08:34:20;2.45;;;0.43;;
583;SDS011;27024;54.068;12.116;2024-01-15T08:36:47;3.70;;;0.35;;
583;SDS011;27024;54.068;12.116;2024-01-15T08:39:14;1.98;;;0.20;;
583;SDS011;27024;54.068;12.116;2024-01-15T08:41:42;5.20;;;0.40;;
583;SDS011;27024;54.068;12.116;2024-01-15T08:44:09;4.00;;;0.30;;
583;SDS011;27024;54.068;12.116;2024-01-15T08:46:36;2.70;;;0.30;;
583;SDS011;27024;54.068;12.116;2024-01-15T08:49:04;8.65;;;0.40;;
583;SDS011;27024;54.068;12.116;2024-01-15T08:51:31;4.43;;;0.30;;
583;SDS011;27024;54.068;12.116;2024-01-15T08:53:58;2.33;;;0.20;;
583;SDS011;27024;54.068;12.116;2024-01-15T08:56:25;2.67;;;0.30;;
583;SDS011;27024;54.068;12.116;2024-01-15T08:58:54;4.28;;;0.32;;
583;SDS011;27024;54.068;12.116;2024-01-15T09:01:21;6.40;;;0.20;;
583;SDS011;27024;54.068;12.116;2024-01-15T09:03:48;1.88;;;0.68;;
583;SDS011;27024;54.068;12.116;2024-01-15T09:06:15;5.15;;;0.35;;
583;SDS011;27024;54.068;12.116;2024-01-15T09:08:42;2.53;;;0.25;;
583;SDS011;27024;54.068;12.116;2024-01-15T09:11:09;4.22;;;0.80;;
583;SDS011;27024;54.068;12.116;2024-01-15T09:13:36;1.83;;;0.65;;
583;SDS011;27024;54.068;12.116;2024-01-15T09:16:03;4.55;;;0.47;;
583;SDS011;27024;54.068;12.116;2024-01-15T09:18:31;3.72;;;0.50;;
583;SDS011;27024;54.068;12.116;2024-01-15T09:20:58;1.88;;;0.30;;
583;SDS011;27024;54.068;12.116;2024-01-15T09:23:26;3.85;;;0.28;;
583;SDS011;27024;54.068;12.116;2024-01-15T09:25:55;2.92;;;0.30;;
583;SDS011;27024;54.068;12.116;2024-01-15T09:28:22;3.55;;;1.02;;
583;SDS011;27024;54.068;12.116;2024-01-15T09:30:49;4.88;;;0.32;;
583;SDS011;27024;54.068;12.116;2024-01-15T09:33:17;2.22;;;0.25;;
583;SDS011;27024;54.068;12.116;2024-01-15T09:35:44;2.67;;;0.30;;
583;SDS011;27024;54.068;12.116;2024-01-15T09:38:11;1.83;;;0.20;;
583;SDS011;27024;54.068;12.116;2024-01-15T09:40:39;2.60;;;0.20;;
583;SDS011;27024;54.068;12.116;2024-01-15T09:43:12;2.15;;;0.35;;
583;SDS011;27024;54.068;12.116;2024-01-15T09:45:40;3.75;;;0.60;;
583;SDS011;27024;54.068;12.116;2024-01-15T09:48:08;2.90;;;0.22;;
583;SDS011;27024;54.068;12.116;2024-01-15T09:50:36;2.50;;;0.25;;
583;SDS011;27024;54.068;12.116;2024-01-15T09:53:04;0.95;;;0.30;;
583;SDS011;27024;54.068;12.116;2024-01-15T09:55:32;1.67;;;0.13;;
583;SDS011;27024;54.068;12.116;2024-01-15T09:58:00;3.63;;;0.50;;
583;SDS011;27024;54.068;12.116;2024-01-15T10:00:28;1.85;;;0.30;;
583;SDS011;27024;54.068;12.116;2024-01-15T10:02:58;1.25;;;0.30;;
583;SDS011;27024;54.068;12.116;2024-01-15T10:05:26;1.35;;;0.35;;
583;SDS011;27024;54.068;12.116;2024-01-15T10:07:54;3.38;;;0.40;;
583;SDS011;27024;54.068;12.116;2024-01-15T10:10:24;3.45;;;0.32;;
583;SDS011;27024;54.068;12.116;2024-01-15T10:12:51;3.38;;;0.52;;
583;SDS011;27024;54.068;12.116;2024-01-15T10:15:18;2.35;;;0.20;;
583;SDS011;27024;54.068;12.116;2024-01-15T10:17:50;3.80;;;0.40;;
583;SDS011;27024;54.068;12.116;2024-01-15T10:20:20;1.45;;;0.20;;
583;SDS011;27024;54.068;12.116;2024-01-15T10:22:50;4.70;;;0.20;;
583;SDS011;27024;54.068;12.116;2024-01-15T10:25:17;0.93;;;0.20;;
583;SDS011;27024;54.068;12.116;2024-01-15T10:28:00;3.35;;;0.20;;
583;SDS011;27024;54.068;12.116;2024-01-15T10:30:29;4.68;;;0.40;;
583;SDS011;27024;54.068;12.116;2024-01-15T10:33:02;1.83;;;0.30;;
583;SDS011;27024;54.068;12.116;2024-01-15T10:35:31;1.13;;;0.20;;
583;SDS011;27024;54.068;12.116;2024-01-15T10:37:59;3.55;;;0.30;;
583;SDS011;27024;54.068;12.116;2024-01-15T10:40:27;0.68;;;0.13;;
583;SDS011;27024;54.068;12.116;2024-01-15T10:42:55;2.83;;;0.30;;
583;SDS011;27024;54.068;12.116;2024-01-15T10:45:22;2.65;;;0.35;;
583;SDS011;27024;54.068;12.116;2024-01-15T10:47:49;1.38;;;0.30;;
583;SDS011;27024;54.068;12.116;2024-01-15T10:50:16;1.65;;;0.30;;
583;SDS011;27024;54.068;12.116;2024-01-15T10:52:43;3.15;;;0.70;;
583;SDS011;27024;54.068;12.116;2024-01-15T10:55:11;1.40;;;0.30;;
583;SDS011;27024;54.068;12.116;2024-01-15T10:57:45;4.05;;;0.50;;
583;SDS011;27024;54.068;12.116;2024-01-15T11:00:16;3.28;;;0.47;;
583;SDS011;27024;54.068;12.116;2024-01-15T11:02:44;7.38;;;1.20;;
583;SDS011;27024;54.068;12.116;2024-01-15T11:05:11;4.43;;;1.08;;
583;SDS011;27024;54.068;12.116;2024-01-15T11:07:39;2.40;;;0.50;;
583;SDS011;27024;54.068;12.116;2024-01-15T11:10:08;4.20;;;0.60;;
583;SDS011;27024;54.068;12.116;2024-01-15T11:16:07;1.65;;;0.13;;
583;SDS011;27024;54.068;12.116;2024-01-15T11:18:42;1.55;;;0.30;;
583;SDS011;27024;54.068;12.116;2024-01-15T11:21:25;1.98;;;0.22;;
583;SDS011;27024;54.068;12.116;2024-01-15T11:23:58;2.35;;;0.50;;
583;SDS011;27024;54.068;12.116;2024-01-15T11:26:33;1.30;;;0.30;;
583;SDS011;27024;54.068;12.116;2024-01-15T11:34:06;1.58;;;0.20;;
583;SDS011;27024;54.068;12.116;2024-01-15T11:41:58;2.72;;;0.45;;
583;SDS011;27024;54.068;12.116;2024-01-15T11:44:26;0.98;;;0.43;;
583;SDS011;27024;54.068;12.116;2024-01-15T11:49:52;3.60;;;0.30;;
583;SDS011;27024;54.068;12.116;2024-01-15T11:52:18;3.92;;;0.28;;
583;SDS011;27024;54.068;12.116;2024-01-15T12:00:07;1.67;;;0.40;;
583;SDS011;27024;54.068;12.116;2024-01-15T12:02:36;3.75;;;0.80;;
583;SDS011;27024;54.068;12.116;2024-01-15T12:05:03;1.15;;;0.40;;
583;SDS011;27024;54.068;12.116;2024-01-15T12:07:31;3.58;;;0.40;;
583;SDS011;27024;54.068;12.116;2024-01-15T12:09:58;2.22;;;0.40;;
583;SDS011;27024;54.068;12.116;2024-01-15T12:13:09;4.97;;;0.50;;
583;SDS011;27024;54.068;12.116;2024-01-15T12:15:19;2.17;;;0.20;;
583;SDS011;27024;54.068;12.116;2024-01-15T12:17:46;8.52;;;0.77;;
583;SDS011;27024;54.068;12.116;2024-01-15T12:20:14;3.40;;;0.20;;
583;SDS011;27024;54.068;12.116;2024-01-15T12:22:42;2.35;;;0.20;;
583;SDS011;27024;54.068;12.116;2024-01-15T12:25:26;3.30;;;0.25;;
583;SDS011;27024;54.068;12.116;2024-01-15T12:27:54;3.67;;;0.60;;
583;SDS011;27024;54.068;12.116;2024-01-15T12:30:22;1.20;;;0.20;;
583;SDS011;27024;54.068;12.116;2024-01-15T12:32:52;2.55;;;0.30;;
583;SDS011;27024;54.068;12.116;2024-01-15T12:35:20;1.67;;;0.40;;
583;SDS011;27024;54.068;12.116;2024-01-15T12:37:47;2.45;;;0.10;;
583;SDS011;27024;54.068;12.116;2024-01-15T12:40:18;3.58;;;0.40;;
583;SDS011;27024;54.068;12.116;2024-01-15T12:42:46;3.38;;;0.43;;
583;SDS011;27024;54.068;12.116;2024-01-15T12:45:14;2.35;;;0.30;;
583;SDS011;27024;54.068;12.116;2024-01-15T12:47:41;2.92;;;0.32;;
583;SDS011;27024;54.068;12.116;2024-01-15T12:50:09;3.35;;;0.30;;
583;SDS011;27024;54.068;12.116;2024-01-15T12:52:45;1.38;;;0.10;;
583;SDS011;27024;54.068;12.116;2024-01-15T12:55:13;3.15;;;0.20;;
583;SDS011;27024;54.068;12.116;2024-01-15T12:57:41;1.33;;;0.20;;
583;SDS011;27024;54.068;12.116;2024-01-15T13:00:09;1.20;;;0.30;;
583;SDS011;27024;54.068;12.116;2024-01-15T13:02:42;3.97;;;0.20;;
583;SDS011;27024;54.068;12.116;2024-01-15T13:05:11;2.10;;;0.43;;
583;SDS011;27024;54.068;12.116;2024-01-15T13:07:41;3.42;;;0.20;;
583;SDS011;27024;54.068;12.116;2024-01-15T13:10:10;1.20;;;0.30;;
583;SDS011;27024;54.068;12.116;2024-01-15T13:12:37;1.27;;;0.20;;
583;SDS011;27024;54.068;12.116;2024-01-15T13:15:06;2.15;;;0.52;;
583;SDS011;27024;54.068;12.116;2024-01-15T13:17:39;2.13;;;0.17;;
583;SDS011;27024;54.068;12.116;2024-01-15T13:20:07;1.92;;;0.20;;
583;SDS011;27024;54.068;12.116;2024-01-15T13:22:35;1.85;;;0.30;;
583;SDS011;27024;54.068;12.116;2024-01-15T13:25:06;2.53;;;0.20;;
583;SDS011;27024;54.068;12.116;2024-01-15T13:27:34;1.08;;;0.30;;
583;SDS011;27024;54.068;12.116;2024-01-15T13:30:03;3.83;;;0.45;;
583;SDS011;27024;54.068;12.116;2024-01-15T13:32:31;1.70;;;0.30;;
583;SDS011;27024;54.068;12.116;2024-01-15T13:34:59;3.20;;;0.30;;
583;SDS011;27024;54.068;12.116;2024-01-15T13:37:26;2.92;;;0.20;;
583;SDS011;27024;54.068;12.116;2024-01-15T13:39:54;1.65;;;0.25;;
583;SDS011;27024;54.068;12.116;2024-01-15T13:42:23;1.92;;;0.17;;
583;SDS011;27024;54.068;12.116;2024-01-15T13:44:50;4.35;;;0.30;;
583;SDS011;27024;54.068;12.116;2024-01-15T13:47:18;2.60;;;0.30;;
583;SDS011;27024;54.068;12.116;2024-01-15T13:49:45;1.48;;;0.20;;
583;SDS011;27024;54.068;12.116;2024-01-15T13:52:12;2.22;;;0.70;;
583;SDS011;27024;54.068;12.116;2024-01-15T13:54:40;1.80;;;0.20;;
583;SDS011;27024;54.068;12.116;2024-01-15T13:57:16;1.15;;;0.28;;
583;SDS011;27024;54.068;12.116;2024-01-15T13:59:45;2.30;;;0.30;;
583;SDS011;27024;54.068;12.116;2024-01-15T14:02:12;1.50;;;0.30;;
583;SDS011;27024;54.068;12.116;2024-01-15T14:04:43;1.95;;;0.20;;
583;SDS011;27024;54.068;12.116;2024-01-15T14:07:10;0.75;;;0.22;;
583;SDS011;27024;54.068;12.116;2024-01-15T14:09:37;2.28;;;0.35;;
583;SDS011;27024;54.068;12.116;2024-01-15T14:12:04;3.53;;;0.30;;
583;SDS011;27024;54.068;12.116;2024-01-15T14:14:33;2.30;;;0.47;;
583;SDS011;27024;54.068;12.116;2024-01-15T14:17:00;4.13;;;0.93;;
583;SDS011;27024;54.068;12.116;2024-01-15T14:19:27;3.53;;;0.38;;
583;SDS011;27024;54.068;12.116;2024-01-15T14:21:54;2.28;;;0.40;;
583;SDS011;27024;54.068;12.116;2024-01-15T14:24:25;2.35;;;0.25;;
583;SDS011;27024;54.068;12.116;2024-01-15T14:26:52;2.40;;;0.30;;
583;SDS011;27024;54.068;12.116;2024-01-15T14:29:19;1.95;;;0.30;;
583;SDS011;27024;54.068;12.116;2024-01-15T14:31:49;1.60;;;0.35;;
583;SDS011;27024;54.068;12.116;2024-01-15T14:34:17;3.28;;;0.70;;
583;SDS011;27024;54.068;12.116;2024-01-15T14:36:45;6.80;;;0.30;;
583;SDS011;27024;54.068;12.116;2024-01-15T14:39:13;4.57;;;0.57;;
583;SDS011;27024;54.068;12.116;2024-01-15T14:41:40;2.60;;;0.20;;
583;SDS011;27024;54.068;12.116;2024-01-15T14:44:09;3.28;;;0.50;;
583;SDS011;27024;54.068;12.116;2024-01-15T14:46:36;1.20;;;0.20;;
583;SDS011;27024;54.068;12.116;2024-01-15T14:49:03;4.15;;;0.80;;
583;SDS011;27024;54.068;12.116;2024-01-15T14:51:31;2.60;;;0.20;;
583;SDS011;27024;54.068;12.116;2024-01-15T14:53:58;2.08;;;0.30;;
583;SDS011;27024;54.068;12.116;2024-01-15T14:56:25;6.65;;;0.55;;
583;SDS011;27024;54.068;12.116;2024-01-15T14:58:52;3.22;;;0.40;;
583;SDS011;27024;54.068;12.116;2024-01-15T15:01:19;0.75;;;0.22;;
583;SDS011;27024;54.068;12.116;2024-01-15T15:03:47;2.25;;;0.20;;
583;SDS011;27024;54.068;12.116;2024-01-15T15:06:14;1.98;;;0.40;;
583;SDS011;27024;54.068;12.116;2024-01-15T15:08:43;2.25;;;0.30;;
583;SDS011;27024;54.068;12.116;2024-01-15T15:11:10;2.15;;;0.30;;
583;SDS011;27024;54.068;12.116;2024-01-15T15:13:37;2.35;;;0.20;;
583;SDS011;27024;54.068;12.116;2024-01-15T15:16:12;3.92;;;0.30;;
583;SDS011;27024;54.068;12.116;2024-01-15T15:18:40;3.80;;;0.38;;
583;SDS011;27024;54.068;12.116;2024-01-15T15:21:10;1.02;;;0.70;;
583;SDS011;27024;54.068;12.116;2024-01-15T15:23:38;1.83;;;0.30;;
583;SDS011;27024;54.068;12.116;2024-01-15T15:26:05;4.75;;;0.55;;